createdAt,value
2019-04-21T00:01:52.145Z,37.17
2019-04-21T00:04:48.308Z,37.70
2019-04-21T00:07:37.870Z,40.20
2019-04-21T00:10:18.489Z,37.77
2019-04-21T00:13:08.068Z,38.73
2019-04-21T00:15:46.752Z,37.08
2019-04-21T00:21:51.132Z,41.85
2019-04-21T00:24:46.142Z,43.90
2019-04-21T00:27:34.025Z,44.17
2019-04-21T00:30:30.330Z,43.97
2019-04-21T00:33:00.202Z,43.50
2019-04-21T00:35:46.493Z,46.60
2019-04-21T00:38:51.369Z,45.93
2019-04-21T00:41:30.798Z,44.33
2019-04-21T00:44:06.526Z,44.97
2019-04-21T00:46:58.364Z,48.93
2019-04-21T00:49:43.221Z,49.27
2019-04-21T00:53:05.657Z,50.73
2019-04-21T00:58:53.712Z,53.47
2019-04-21T01:01:42.636Z,52.03
2019-04-21T01:04:23.579Z,49.30
2019-04-21T01:07:18.037Z,50.83
2019-04-21T01:09:48.555Z,55.57
2019-04-21T01:12:43.007Z,52.80
2019-04-21T01:15:35.193Z,52.70
2019-04-21T01:18:16.522Z,54.77
2019-04-21T01:20:37.874Z,53.80
2019-04-21T01:23:21.655Z,60.00
2019-04-21T01:26:17.775Z,67.63
2019-04-21T01:29:05.387Z,78.12
2019-04-21T01:31:57.316Z,72.00
2019-04-21T01:34:45.138Z,69.17
2019-04-21T01:37:34.412Z,62.73
2019-04-21T01:40:25.921Z,67.50
2019-04-21T01:43:04.941Z,58.87
2019-04-21T01:45:49.396Z,59.43
2019-04-21T01:48:33.260Z,57.40
2019-04-21T01:51:18.738Z,62.43
2019-04-21T01:54:48.247Z,75.20
2019-04-21T01:57:59.394Z,67.83
2019-04-21T02:03:52.883Z,63.48
2019-04-21T02:06:33.766Z,78.53
2019-04-21T02:09:14.880Z,76.37
2019-04-21T02:12:08.799Z,74.40
2019-04-21T02:14:45.761Z,76.93
2019-04-21T02:17:23.343Z,85.33
2019-04-21T02:20:08.933Z,82.20
2019-04-21T02:23:12.786Z,88.57
2019-04-21T02:25:47.129Z,84.23
2019-04-21T02:28:40.404Z,82.27
2019-04-21T02:31:29.155Z,75.57
2019-04-21T02:34:09.148Z,77.97
2019-04-21T02:37:14.369Z,77.73
2019-04-21T02:42:31.520Z,80.93
2019-04-21T02:45:19.088Z,74.60
2019-04-21T02:50:47.607Z,75.32
2019-04-21T02:53:45.807Z,76.70
2019-04-21T02:56:18.071Z,73.00
2019-04-21T03:02:36.820Z,60.67
2019-04-21T03:08:28.057Z,67.90
2019-04-21T03:13:57.357Z,58.20
2019-04-21T03:16:47.127Z,57.03
2019-04-21T03:19:28.909Z,58.87
2019-04-21T03:22:18.242Z,55.53
2019-04-21T03:30:44.985Z,58.17
2019-04-21T03:38:43.032Z,55.43
2019-04-21T03:41:31.697Z,55.83
2019-04-21T03:44:16.982Z,61.13
2019-04-21T03:47:04.432Z,54.13
2019-04-21T03:49:47.368Z,57.27
2019-04-21T03:58:41.545Z,54.50
2019-04-21T04:01:41.107Z,57.47
2019-04-21T04:04:40.593Z,58.45
2019-04-21T04:07:42.462Z,56.33
2019-04-21T04:10:24.502Z,59.83
2019-04-21T04:13:04.627Z,54.53
2019-04-21T04:18:51.179Z,58.20
2019-04-21T04:21:30.825Z,57.70
2019-04-21T04:24:22.270Z,57.57
2019-04-21T04:26:57.441Z,55.65
2019-04-21T04:29:42.312Z,64.85
2019-04-21T04:32:28.623Z,55.63
2019-04-21T04:35:40.531Z,59.97
2019-04-21T04:38:03.671Z,55.07
2019-04-21T04:41:16.249Z,58.27
2019-04-21T04:44:11.181Z,57.57
2019-04-21T04:47:01.871Z,62.60
2019-04-21T05:03:40.175Z,59.60
2019-04-21T05:06:42.091Z,62.10
2019-04-21T05:09:31.592Z,55.93
2019-04-21T05:12:11.617Z,63.58
2019-04-21T05:15:07.788Z,57.07
2019-04-21T05:20:29.880Z,65.10
2019-04-21T05:23:11.942Z,61.53
2019-04-21T05:25:51.142Z,66.67
2019-04-21T05:28:32.884Z,56.00
2019-04-21T05:31:58.489Z,55.80
2019-04-21T05:40:39.912Z,55.92
2019-04-21T05:43:32.441Z,58.40
2019-04-21T05:46:21.648Z,56.93
2019-04-21T05:49:05.050Z,57.03
2019-04-21T05:51:58.333Z,53.90
2019-04-21T05:54:56.996Z,55.10
2019-04-21T05:57:33.448Z,56.07
2019-04-21T06:00:23.550Z,62.08
2019-04-21T06:03:09.859Z,55.00
2019-04-21T06:06:07.286Z,49.70
2019-04-21T06:08:53.982Z,47.67
2019-04-21T06:11:28.813Z,50.07
2019-04-21T06:14:14.346Z,45.33
2019-04-21T06:17:08.077Z,38.77
2019-04-21T06:20:01.890Z,38.60
2019-04-21T06:22:46.768Z,32.30
2019-04-21T06:25:49.579Z,33.70
2019-04-21T06:28:22.379Z,35.03
2019-04-21T06:31:19.971Z,26.50
2019-04-21T06:33:48.780Z,27.90
2019-04-21T06:42:21.171Z,24.73
2019-04-21T06:45:13.033Z,21.53
2019-04-21T06:48:02.825Z,21.60
2019-04-21T06:50:51.066Z,19.73
2019-04-21T06:53:40.356Z,19.83
2019-04-21T06:56:13.890Z,19.83
2019-04-21T06:59:01.344Z,19.23
2019-04-21T07:01:48.786Z,20.12
2019-04-21T07:04:50.116Z,19.00
2019-04-21T07:07:17.183Z,20.52
2019-04-21T07:10:10.689Z,18.47
2019-04-21T07:12:44.917Z,20.60
2019-04-21T07:15:41.928Z,20.57
2019-04-21T07:18:19.150Z,18.65
2019-04-21T07:21:06.139Z,18.83
2019-04-21T07:23:59.406Z,20.70
2019-04-21T07:26:47.711Z,21.33
2019-04-21T07:29:28.893Z,16.67
2019-04-21T07:32:09.341Z,17.63
2019-04-21T07:35:00.151Z,15.83
2019-04-21T07:37:41.063Z,15.70
2019-04-21T07:40:24.271Z,14.30
2019-04-21T07:43:12.124Z,22.97
2019-04-21T07:45:56.918Z,17.80
2019-04-21T07:48:58.752Z,17.97
2019-04-21T07:55:06.232Z,17.63
2019-04-21T07:57:39.426Z,18.02
2019-04-21T08:03:28.254Z,17.17
2019-04-21T08:06:18.912Z,17.87
2019-04-21T08:09:00.953Z,16.00
2019-04-21T08:11:41.636Z,16.03
2019-04-21T08:14:42.875Z,14.93
2019-04-21T08:17:16.493Z,15.97
2019-04-21T08:20:00.273Z,15.30
2019-04-21T08:22:51.088Z,13.77
2019-04-21T08:25:40.342Z,12.83
2019-04-21T08:28:19.176Z,14.87
2019-04-21T08:31:07.967Z,14.60
2019-04-21T08:33:55.407Z,16.87
2019-04-21T08:36:40.502Z,13.93
2019-04-21T08:39:30.245Z,13.97
2019-04-21T08:42:15.540Z,13.03
2019-04-21T08:45:02.097Z,14.27
2019-04-21T08:47:47.770Z,14.93
2019-04-21T08:50:31.267Z,12.30
2019-04-21T08:53:14.433Z,13.15
2019-04-21T08:56:27.717Z,13.37
2019-04-21T09:05:45.076Z,15.53
2019-04-21T09:08:25.120Z,13.03
2019-04-21T09:11:14.933Z,13.70
2019-04-21T09:13:55.930Z,12.27
2019-04-21T09:16:41.132Z,11.80
2019-04-21T09:19:38.543Z,12.33
2019-04-21T09:22:10.917Z,9.73
2019-04-21T09:24:55.731Z,11.47
2019-04-21T09:27:41.933Z,12.43
2019-04-21T09:30:13.457Z,15.00
2019-04-21T09:33:00.083Z,13.43
2019-04-21T09:35:49.162Z,10.37
2019-04-21T09:38:37.076Z,11.38
2019-04-21T09:41:18.957Z,8.93
2019-04-21T09:44:03.013Z,7.33
2019-04-21T09:46:54.013Z,7.90
2019-04-21T09:49:37.214Z,6.78
2019-04-21T09:52:25.585Z,6.95
2019-04-21T09:55:15.266Z,8.97
2019-04-21T09:57:57.203Z,10.77
2019-04-21T10:00:31.285Z,10.60
2019-04-21T10:03:23.065Z,6.47
2019-04-21T10:06:07.013Z,7.63
2019-04-21T10:09:01.149Z,6.80
2019-04-21T10:11:37.615Z,8.10
2019-04-21T10:14:22.023Z,7.00
2019-04-21T10:17:25.312Z,7.03
2019-04-21T10:20:11.610Z,8.00
2019-04-21T10:23:01.128Z,9.50
2019-04-21T10:25:46.365Z,7.00
2019-04-21T10:28:35.109Z,11.73
2019-04-21T10:31:32.378Z,8.77
2019-04-21T10:34:17.010Z,7.00
2019-04-21T10:37:02.762Z,7.90
2019-04-21T10:39:47.515Z,8.63
2019-04-21T10:42:33.127Z,7.93
2019-04-21T10:45:17.330Z,9.57
2019-04-21T10:48:03.053Z,10.07
2019-04-21T10:50:35.387Z,8.93
2019-04-21T10:53:23.071Z,8.75
2019-04-21T10:56:15.423Z,8.30
2019-04-21T10:58:54.138Z,8.70
2019-04-21T11:01:41.070Z,9.70
2019-04-21T11:04:33.646Z,9.55
2019-04-21T11:07:52.161Z,9.68
2019-04-21T11:10:34.043Z,10.40
2019-04-21T11:13:18.924Z,9.78
2019-04-21T11:16:03.487Z,9.40
2019-04-21T11:18:48.709Z,10.48
2019-04-21T11:21:34.618Z,11.80
2019-04-21T11:24:20.794Z,9.10
2019-04-21T11:27:06.737Z,12.10
2019-04-21T11:29:51.688Z,10.13
2019-04-21T11:32:35.481Z,11.37
2019-04-21T11:35:19.394Z,12.23
2019-04-21T11:38:14.430Z,10.98
2019-04-21T11:40:40.023Z,14.43
2019-04-21T11:43:24.717Z,11.38
2019-04-21T11:46:08.757Z,12.50
2019-04-21T11:48:52.768Z,10.33
2019-04-21T11:51:37.527Z,10.90
2019-04-21T11:54:22.566Z,8.90
2019-04-21T11:57:12.394Z,8.68
2019-04-21T11:59:53.570Z,7.73
2019-04-21T12:02:37.970Z,10.27
2019-04-21T12:05:23.317Z,9.08
2019-04-21T12:08:18.957Z,6.40
2019-04-21T12:10:53.497Z,6.07
2019-04-21T12:13:38.197Z,6.17
2019-04-21T12:16:23.490Z,6.37
2019-04-21T12:19:08.936Z,5.67
2019-04-21T12:22:05.000Z,8.10
2019-04-21T12:24:39.696Z,6.23
2019-04-21T12:27:25.443Z,6.23
2019-04-21T12:30:11.414Z,5.73
2019-04-21T12:33:02.110Z,6.62
2019-04-21T12:35:55.736Z,6.25
2019-04-21T12:38:46.913Z,5.73
2019-04-21T12:41:26.696Z,7.40
2019-04-21T12:44:11.183Z,7.13
2019-04-21T12:46:56.345Z,5.90
2019-04-21T12:49:41.496Z,5.43
2019-04-21T12:52:27.248Z,5.20
2019-04-21T12:55:11.504Z,5.83
2019-04-21T12:57:45.460Z,6.90
2019-04-21T13:00:31.208Z,5.87
2019-04-21T13:03:17.389Z,6.73
2019-04-21T13:06:05.904Z,5.57
2019-04-21T13:09:01.477Z,5.90
2019-04-21T13:11:51.001Z,6.50
2019-04-21T13:14:35.824Z,6.13
2019-04-21T13:17:21.465Z,5.70
2019-04-21T13:19:54.240Z,6.53
2019-04-21T13:22:37.958Z,5.07
2019-04-21T13:25:21.634Z,5.87
2019-04-21T13:28:07.051Z,5.53
2019-04-21T13:30:51.776Z,5.37
2019-04-21T13:33:38.271Z,5.47
2019-04-21T13:36:27.631Z,5.33
2019-04-21T13:42:39.421Z,5.17
2019-04-21T13:45:18.312Z,5.70
2019-04-21T13:48:02.366Z,5.53
2019-04-21T13:50:47.235Z,6.03
2019-04-21T13:53:33.046Z,5.37
2019-04-21T13:56:18.456Z,4.90
2019-04-21T13:59:02.393Z,5.40
2019-04-21T14:01:35.944Z,5.20
2019-04-21T14:04:31.510Z,4.10
2019-04-21T14:13:12.138Z,5.13
2019-04-21T14:15:56.266Z,4.23
2019-04-21T14:18:40.754Z,3.97
2019-04-21T14:21:25.637Z,4.13
2019-04-21T14:24:10.860Z,3.63
2019-04-21T14:26:58.380Z,3.80
2019-04-21T14:29:43.858Z,4.17
2019-04-21T14:32:29.515Z,4.77
2019-04-21T14:35:14.794Z,3.87
2019-04-21T14:38:00.276Z,3.47
2019-04-21T14:40:44.944Z,5.27
2019-04-21T14:43:30.270Z,3.80
2019-04-21T14:49:24.643Z,4.63
2019-04-21T14:52:16.850Z,3.60
2019-04-21T14:55:20.911Z,3.70
2019-04-21T14:58:19.141Z,4.30
2019-04-21T15:01:10.769Z,3.47
2019-04-21T15:03:55.498Z,5.33
2019-04-21T15:06:41.261Z,4.20
2019-04-21T15:09:25.325Z,4.70
2019-04-21T15:12:11.931Z,4.97
2019-04-21T15:14:56.354Z,3.23
2019-04-21T15:17:40.206Z,3.10
2019-04-21T15:20:26.888Z,3.67
2019-04-21T15:23:12.338Z,3.10
2019-04-21T15:25:56.572Z,3.52
2019-04-21T15:28:42.480Z,5.13
2019-04-21T15:31:25.703Z,3.58
2019-04-21T15:34:15.022Z,3.43
2019-04-21T15:36:59.894Z,4.97
2019-04-21T15:39:46.807Z,3.00
2019-04-21T15:42:30.795Z,2.93
2019-04-21T15:45:16.849Z,3.00
2019-04-21T15:48:00.637Z,3.67
2019-04-21T15:50:44.186Z,2.70
2019-04-21T15:59:48.508Z,3.50
2019-04-21T16:02:46.739Z,4.43
2019-04-21T16:05:32.892Z,2.95
2019-04-21T16:08:18.222Z,2.93
2019-04-21T16:11:04.610Z,2.83
2019-04-21T16:13:48.127Z,3.00
2019-04-21T16:16:33.823Z,2.57
2019-04-21T16:19:18.455Z,4.03
2019-04-21T16:22:04.675Z,3.92
2019-04-21T16:24:50.525Z,3.93
2019-04-21T16:27:35.194Z,9.33
2019-04-21T16:30:21.568Z,6.10
2019-04-21T16:33:06.324Z,5.93
2019-04-21T16:35:51.774Z,6.37
2019-04-21T16:38:37.584Z,4.65
2019-04-21T16:41:29.411Z,4.20
2019-04-21T16:44:13.857Z,4.50
2019-04-21T16:47:01.358Z,4.33
2019-04-21T16:49:47.500Z,3.33
2019-04-21T16:52:36.431Z,3.95
2019-04-21T16:55:41.454Z,2.50
2019-04-21T16:58:30.930Z,3.00
2019-04-21T17:01:34.253Z,3.03
2019-04-21T17:04:20.263Z,5.90
2019-04-21T17:07:05.199Z,2.50
2019-04-21T17:09:50.659Z,3.25
2019-04-21T17:12:37.363Z,3.00
2019-04-21T17:15:35.581Z,2.33
2019-04-21T17:18:29.916Z,4.37
2019-04-21T17:20:59.704Z,2.30
2019-04-21T17:23:40.720Z,2.43
2019-04-21T17:26:27.087Z,2.60
2019-04-21T17:29:12.251Z,4.40
2019-04-21T17:31:57.357Z,3.53
2019-04-21T17:34:43.800Z,3.80
2019-04-21T17:37:29.195Z,3.57
2019-04-21T17:40:24.071Z,2.97
2019-04-21T17:43:13.870Z,3.07
2019-04-21T17:45:55.198Z,4.00
2019-04-21T17:48:40.626Z,4.33
2019-04-21T17:51:54.600Z,3.70
2019-04-21T17:54:54.745Z,2.37
2019-04-21T17:57:57.741Z,3.25
2019-04-21T18:01:06.127Z,3.43
2019-04-21T18:03:53.570Z,4.20
2019-04-21T18:06:14.286Z,2.60
2019-04-21T18:09:21.897Z,3.90
2019-04-21T18:12:03.379Z,2.77
2019-04-21T18:14:32.737Z,3.67
2019-04-21T18:17:18.327Z,5.50
2019-04-21T18:20:04.114Z,4.67
2019-04-21T18:23:20.868Z,5.50
2019-04-21T18:26:01.984Z,5.40
2019-04-21T18:28:40.849Z,6.97
2019-04-21T18:31:27.033Z,8.53
2019-04-21T18:34:34.172Z,4.83
2019-04-21T18:37:42.754Z,4.03
2019-04-21T18:40:49.071Z,4.50
2019-04-21T18:43:56.725Z,3.53
2019-04-21T18:47:14.737Z,5.23
2019-04-21T18:49:56.206Z,5.60
2019-04-21T18:53:03.320Z,8.13
2019-04-21T18:55:48.221Z,8.40
2019-04-21T18:58:30.803Z,8.48
2019-04-21T19:01:20.726Z,9.37
2019-04-21T19:04:05.358Z,8.30
2019-04-21T19:07:02.670Z,10.75
2019-04-21T19:10:03.602Z,12.18
2019-04-21T19:13:09.181Z,8.70
2019-04-21T19:15:30.027Z,10.07
2019-04-21T19:18:35.145Z,9.67
2019-04-21T19:21:08.208Z,9.50
2019-04-21T19:23:58.117Z,11.73
2019-04-21T19:26:49.178Z,9.80
2019-04-21T19:29:28.800Z,8.50
2019-04-21T19:32:14.869Z,11.20
2019-04-21T19:34:43.127Z,11.43
2019-04-21T19:37:29.775Z,11.57
2019-04-21T19:40:30.858Z,10.37
2019-04-21T19:43:07.856Z,12.07
2019-04-21T19:46:03.035Z,9.63
2019-04-21T19:48:55.278Z,12.25
2019-04-21T19:51:33.014Z,11.23
2019-04-21T19:54:13.324Z,11.60
2019-04-21T19:56:49.011Z,10.47
2019-04-21T19:59:41.772Z,9.97
2019-04-21T20:02:08.864Z,11.03
2019-04-21T20:05:10.680Z,9.20
2019-04-21T20:08:06.661Z,12.70
2019-04-21T20:10:55.496Z,17.43
2019-04-21T20:13:56.904Z,18.47
2019-04-21T20:16:30.982Z,20.13
2019-04-21T20:19:01.365Z,30.10
2019-04-21T20:21:41.068Z,38.73
2019-04-21T20:24:28.316Z,36.03
2019-04-21T20:27:19.399Z,37.63
2019-04-21T20:30:13.500Z,36.37
2019-04-21T20:33:05.977Z,36.33
2019-04-21T20:35:51.952Z,32.23
2019-04-21T20:38:28.314Z,31.93
2019-04-21T20:41:15.860Z,31.80
2019-04-21T20:44:09.861Z,33.77
2019-04-21T20:46:40.270Z,35.37
2019-04-21T20:49:40.417Z,34.00
2019-04-21T20:52:41.537Z,33.13
2019-04-21T20:55:26.461Z,30.88
2019-04-21T20:58:15.098Z,34.27
2019-04-21T21:01:32.994Z,31.90
2019-04-21T21:03:51.804Z,36.00
2019-04-21T21:06:54.409Z,33.43
2019-04-21T21:09:41.361Z,30.73
2019-04-21T21:15:04.151Z,31.00
2019-04-21T21:18:06.037Z,36.93
2019-04-21T21:20:49.394Z,35.13
2019-04-21T21:23:36.213Z,34.40
2019-04-21T21:26:21.939Z,30.32
2019-04-21T21:28:57.483Z,29.07
2019-04-21T21:32:04.248Z,27.40
2019-04-21T21:34:41.000Z,25.27
2019-04-21T21:40:12.247Z,22.23
2019-04-21T21:42:43.429Z,22.47
2019-04-21T21:45:17.936Z,23.13
2019-04-21T21:48:27.438Z,19.97
2019-04-21T21:51:05.876Z,22.93
2019-04-21T21:53:42.679Z,22.60
2019-04-21T21:56:32.280Z,20.33
2019-04-21T21:59:37.976Z,21.83
2019-04-21T22:02:29.328Z,18.70
2019-04-21T22:05:11.098Z,20.70
2019-04-21T22:07:52.214Z,20.70
2019-04-21T22:10:37.299Z,19.77
2019-04-21T22:13:31.295Z,15.80
2019-04-21T22:16:12.244Z,15.77
2019-04-21T22:19:21.922Z,13.83
2019-04-21T22:21:57.857Z,13.40
2019-04-21T22:24:41.521Z,13.70
2019-04-21T22:27:10.808Z,15.30
2019-04-21T22:29:59.383Z,12.67
2019-04-21T22:32:51.258Z,12.50
2019-04-21T22:35:34.439Z,12.73
2019-04-21T22:38:28.296Z,15.60
2019-04-21T22:41:11.978Z,11.33
2019-04-21T22:43:49.347Z,11.20
2019-04-21T22:46:30.632Z,13.07
2019-04-21T22:49:21.453Z,11.93
2019-04-21T22:52:20.957Z,12.15
2019-04-21T22:55:18.725Z,11.65
2019-04-21T22:58:02.048Z,10.93
2019-04-21T23:01:05.243Z,12.27
2019-04-21T23:04:05.203Z,11.13
2019-04-21T23:07:07.210Z,11.17
2019-04-21T23:09:47.607Z,11.05
2019-04-21T23:12:35.104Z,11.88
2019-04-21T23:15:23.129Z,11.17
2019-04-21T23:18:23.452Z,12.30
2019-04-21T23:21:06.164Z,10.77
2019-04-21T23:23:57.174Z,11.73
2019-04-21T23:26:42.062Z,10.35
2019-04-21T23:30:09.874Z,10.68
2019-04-21T23:32:30.414Z,10.40
2019-04-21T23:35:16.953Z,11.80
2019-04-21T23:37:52.935Z,8.83
2019-04-21T23:40:33.071Z,11.27
2019-04-21T23:43:23.862Z,11.00
2019-04-21T23:46:11.921Z,8.20
2019-04-21T23:48:56.220Z,11.40
2019-04-21T23:51:43.240Z,8.78
2019-04-21T23:54:19.561Z,9.83
2019-04-21T23:57:11.930Z,11.65
2019-04-21T23:59:55.398Z,11.83
